Terminal Aerodrome Forecast
Issued by NWS

Home | Current Version | Previous Version | Text Only | Print | Product List | Glossary On
Versions: 1 2 3 4 5 6 7 8 9 10 11 12 13 14
444
FTUS43 KMQT 041735
TAFIWD
TAF
KIWD 041735Z 0418/0518 01008KT P6SM BKN025
     FM042000 01008KT P6SM SCT200
     FM050100 VRB03KT P6SM SKC
     FM051500 23007KT P6SM SCT100
      AMD LTD TO VIS AND WIND=

USA.gov is the U.S. government's official web portal to all federal, state and local government web resources and services.